Terminal Aerodrome Forecast
Issued by NWS

Home | Current Version | Previous Version | Text Only | Print | Product List | Glossary On
Versions: 1 2 3 4 5 6 7 8 9 10 11 12 13 14 15 16 17
000
FTUS44 KLZK 030500
TAFLLQ
TAF
KLLQ 030533Z 0306/0406 23008KT P6SM VCSH FEW050 BKN150 OVC250
     FM031200 24008G15KT P6SM VCSH SCT030 BKN100 OVC250
     FM031500 24009G16KT P6SM VCTS SCT040CB BKN100 OVC250
     FM031800 24009G16KT P6SM -TSRA SCT040CB BKN100 OVC250=

USA.gov is the U.S. government's official web portal to all federal, state and local government web resources and services.